Time;durP1;ratioP1;P1;durP2;ratioP2;P2;SDS_P1;SDS_P2;PMS_P1;PMS_P2;Temp;Humidity;BMP_temperature;BMP_pressure;BME280_temperature;BME280_humidity;BME280_pressure;Samples;Min_cycle;Max_cycle;Signal;HPM_P1;HPM_P2
2023/10/31 00:02:26;;;;;;;4.45;1.50;;;;;;;15.97;100.00;96254.22;1225532;75;2919243;-68
2023/10/31 00:04:58;;;;;;;2.50;1.05;;;;;;;16.08;100.00;96242.09;1225777;75;2922499;-70
2023/10/31 00:07:32;;;;;;;3.00;1.55;;;;;;;16.02;100.00;96235.97;1226055;75;2919525;-70
2023/10/31 00:10:04;;;;;;;2.15;1.30;;;;;;;16.22;100.00;96240.66;1225297;75;2912089;-70
2023/10/31 00:12:40;;;;;;;5.15;1.60;;;;;;;16.18;100.00;96235.47;1225389;75;2915283;-73
2023/10/31 00:15:12;;;;;;;3.15;1.40;;;;;;;16.31;100.00;96234.59;1225833;75;2921705;-70
2023/10/31 00:17:45;;;;;;;3.75;1.50;;;;;;;16.19;100.00;96242.50;1225684;75;2914791;-71
2023/10/31 00:20:18;;;;;;;2.00;1.30;;;;;;;16.23;100.00;96252.44;1225183;75;2917482;-71
2023/10/31 00:22:50;;;;;;;1.45;1.00;;;;;;;16.27;100.00;96253.56;1225572;75;2911665;-72
2023/10/31 00:25:23;;;;;;;1.85;1.15;;;;;;;16.29;100.00;96250.97;1223665;75;2916371;-70
2023/10/31 00:27:58;;;;;;;4.40;1.05;;;;;;;16.10;100.00;96250.56;1225424;75;2915092;-67
2023/10/31 00:30:31;;;;;;;5.60;1.60;;;;;;;16.07;100.00;96246.16;1225905;75;2934343;-68
2023/10/31 00:33:04;;;;;;;3.05;1.75;;;;;;;15.95;100.00;96245.72;1225151;75;2915330;-70
2023/10/31 00:35:37;;;;;;;4.70;1.40;;;;;;;16.00;100.00;96247.59;1225457;75;2920001;-69
2023/10/31 00:38:10;;;;;;;4.05;1.55;;;;;;;16.11;100.00;96235.47;1225261;75;2917375;-68
2023/10/31 00:40:42;;;;;;;3.20;1.30;;;;;;;16.03;100.00;96249.25;1225380;75;2918006;-72
2023/10/31 00:43:18;;;;;;;4.10;1.75;;;;;;;16.23;100.00;96233.09;1224720;75;2915007;-70
2023/10/31 00:45:51;;;;;;;3.30;1.40;;;;;;;16.23;100.00;96242.13;1224827;75;2915149;-71
2023/10/31 00:48:23;;;;;;;5.20;1.75;;;;;;;16.22;100.00;96254.47;1224917;75;2917213;-69
2023/10/31 00:50:56;;;;;;;2.25;1.25;;;;;;;16.27;99.52;96245.25;1225381;67;2916027;-72
2023/10/31 00:53:28;;;;;;;5.35;1.45;;;;;;;16.26;99.18;96252.09;1225923;75;2925353;-71
2023/10/31 00:56:01;;;;;;;5.00;1.80;;;;;;;16.40;98.11;96241.59;1226876;75;2920828;-71
2023/10/31 00:58:36;;;;;;;4.70;1.70;;;;;;;16.32;100.00;96240.84;1226044;75;2917916;-69
2023/10/31 01:01:09;;;;;;;1.70;1.20;;;;;;;16.21;100.00;96241.19;1225415;75;2914275;-72
2023/10/31 01:03:42;;;;;;;2.35;1.30;;;;;;;16.36;100.00;96233.69;1225855;75;2914375;-71
2023/10/31 01:06:14;;;;;;;1.90;1.10;;;;;;;16.34;100.00;96236.25;1225395;75;2913160;-67
2023/10/31 01:08:47;;;;;;;3.00;0.80;;;;;;;16.46;100.00;96239.41;1225008;75;2925773;-73
2023/10/31 01:11:20;;;;;;;2.95;1.20;;;;;;;16.38;100.00;96239.41;1225852;75;2914445;-71
2023/10/31 01:13:55;;;;;;;2.65;1.30;;;;;;;16.28;100.00;96226.66;1224166;75;2965653;-69
2023/10/31 01:16:28;;;;;;;5.35;1.60;;;;;;;16.17;100.00;96200.88;1225488;75;2920017;-70
2023/10/31 01:19:00;;;;;;;2.85;1.60;;;;;;;16.24;100.00;96221.53;1225007;75;2924219;-69
2023/10/31 01:21:33;;;;;;;4.10;1.45;;;;;;;16.24;100.00;96242.88;1226312;75;2917476;-72
2023/10/31 01:24:06;;;;;;;3.10;1.40;;;;;;;16.33;96.65;96239.56;1226426;75;2919194;-70
2023/10/31 01:26:38;;;;;;;4.05;1.45;;;;;;;16.34;98.57;96258.34;1225223;75;2916319;-72
2023/10/31 01:29:13;;;;;;;4.20;1.60;;;;;;;16.31;99.63;96276.03;1225775;75;2913076;-69
2023/10/31 01:31:46;;;;;;;4.65;1.85;;;;;;;16.31;100.00;96273.25;1225497;75;2924741;-70
2023/10/31 01:34:19;;;;;;;3.05;1.40;;;;;;;16.39;100.00;96270.53;1225131;75;2917391;-71
2023/10/31 01:36:52;;;;;;;2.75;1.50;;;;;;;16.40;100.00;96281.03;1225888;75;2919084;-67
2023/10/31 01:39:24;;;;;;;3.10;1.60;;;;;;;16.00;100.00;96277.22;1225558;75;2922675;-70
2023/10/31 01:41:57;;;;;;;2.05;1.50;;;;;;;16.13;100.00;96274.31;1225505;75;2913348;-70
2023/10/31 01:44:32;;;;;;;4.50;1.50;;;;;;;15.86;100.00;96262.81;1225022;75;2920032;-68
2023/10/31 01:47:05;;;;;;;4.35;1.65;;;;;;;15.94;100.00;96253.25;1224427;75;2911111;-68
2023/10/31 01:49:38;;;;;;;3.80;1.40;;;;;;;15.78;100.00;96254.50;1224887;75;2915446;-69
2023/10/31 01:52:11;;;;;;;4.75;1.60;;;;;;;15.82;100.00;96251.38;1225185;75;2925096;-66
2023/10/31 01:54:43;;;;;;;2.65;1.30;;;;;;;15.76;100.00;96240.50;1224685;75;2920473;-68
2023/10/31 01:57:18;;;;;;;4.70;1.65;;;;;;;15.76;100.00;96232.97;1224807;75;2920354;-71
2023/10/31 01:59:54;;;;;;;2.25;1.35;;;;;;;15.76;100.00;96229.47;1225095;75;2909829;-68
2023/10/31 02:02:28;;;;;;;4.55;1.55;;;;;;;15.63;100.00;96229.56;1225256;75;2917522;-69
2023/10/31 02:05:02;;;;;;;3.50;1.70;;;;;;;15.62;100.00;96230.84;1225600;75;2922078;-68
2023/10/31 02:07:34;;;;;;;2.60;1.50;;;;;;;15.96;100.00;96223.09;1225850;75;2915592;-68
2023/10/31 02:10:08;;;;;;;2.35;1.55;;;;;;;15.90;100.00;96228.06;1224440;75;2925073;-69
2023/10/31 02:12:41;;;;;;;2.10;1.20;;;;;;;15.84;100.00;96223.97;1225761;75;2916142;-69
2023/10/31 02:15:17;;;;;;;3.20;1.60;;;;;;;15.66;100.00;96222.97;1225029;75;2918696;-71
2023/10/31 02:17:49;;;;;;;3.70;1.55;;;;;;;15.60;100.00;96211.34;1224967;75;2917544;-70
2023/10/31 02:20:22;;;;;;;3.65;1.50;;;;;;;15.73;100.00;96216.78;1225130;75;2920771;-70
2023/10/31 02:22:57;;;;;;;5.15;2.35;;;;;;;15.49;100.00;96221.41;1224609;75;2926524;-69
2023/10/31 02:25:30;;;;;;;4.55;1.60;;;;;;;15.71;100.00;96222.09;1224376;75;2924354;-71
2023/10/31 02:28:03;;;;;;;4.70;1.75;;;;;;;15.74;100.00;96221.72;1224902;75;2920413;-70
2023/10/31 02:30:37;;;;;;;5.40;1.90;;;;;;;15.55;100.00;96205.44;1224951;75;2956592;-68
2023/10/31 02:33:09;;;;;;;6.55;1.95;;;;;;;15.42;100.00;96196.56;1225044;75;2922293;-71
2023/10/31 02:35:42;;;;;;;5.55;1.80;;;;;;;15.26;100.00;96190.22;1224688;75;2915465;-68
2023/10/31 02:38:18;;;;;;;4.15;1.70;;;;;;;15.23;100.00;96170.00;1224888;75;2929937;-68
2023/10/31 02:40:50;;;;;;;5.70;1.80;;;;;;;15.26;100.00;96165.41;1225132;75;2921845;-67
2023/10/31 02:43:23;;;;;;;4.40;1.75;;;;;;;15.36;100.00;96158.09;1225388;75;2912508;-68
2023/10/31 02:45:55;;;;;;;3.05;1.60;;;;;;;15.32;100.00;96122.63;1225393;75;2920874;-70
2023/10/31 02:48:31;;;;;;;3.50;1.45;;;;;;;15.51;100.00;96096.75;1221160;75;2922676;-66
2023/10/31 02:51:04;;;;;;;6.35;1.60;;;;;;;15.51;100.00;96093.97;1225019;75;2929090;-70
2023/10/31 02:53:39;;;;;;;3.25;1.60;;;;;;;15.56;100.00;96046.19;1224584;75;2927825;-70
2023/10/31 02:56:12;;;;;;;2.60;1.20;;;;;;;15.54;100.00;96035.72;1225987;75;2914126;-68
2023/10/31 02:58:45;;;;;;;3.50;1.35;;;;;;;15.69;100.00;96083.94;1225834;75;2911552;-68
2023/10/31 03:01:19;;;;;;;2.55;1.00;;;;;;;15.74;100.00;96075.50;1225262;75;2921346;-70
2023/10/31 03:03:52;;;;;;;4.35;1.25;;;;;;;15.62;100.00;96077.09;1225226;75;2915038;-71
2023/10/31 03:06:25;;;;;;;5.70;1.60;;;;;;;15.62;100.00;96073.63;1224763;75;2935390;-70
2023/10/31 03:09:00;;;;;;;2.00;1.20;;;;;;;15.85;100.00;96049.59;1222203;75;2992390;-70
2023/10/31 03:11:32;;;;;;;1.10;0.80;;;;;;;15.79;100.00;96120.03;1225861;75;2907095;-70
2023/10/31 03:14:05;;;;;;;1.90;0.90;;;;;;;15.86;100.00;96138.63;1224975;75;2915102;-69
2023/10/31 03:16:38;;;;;;;2.15;1.40;;;;;;;15.72;100.00;96157.34;1224395;75;2913476;-71
2023/10/31 03:19:11;;;;;;;3.35;1.30;;;;;;;15.68;100.00;96151.41;1225391;75;2917443;-71
2023/10/31 03:21:44;;;;;;;3.00;1.10;;;;;;;15.63;100.00;96144.78;1225518;75;2922263;-68
2023/10/31 03:24:19;;;;;;;2.20;1.00;;;;;;;15.51;100.00;96149.16;1226263;75;2922825;-70
2023/10/31 03:26:52;;;;;;;3.20;1.05;;;;;;;15.52;100.00;96167.19;1225903;75;2921011;-70
2023/10/31 03:29:24;;;;;;;3.05;1.20;;;;;;;15.47;100.00;96154.28;1225491;75;2916724;-69
2023/10/31 03:31:57;;;;;;;2.15;0.85;;;;;;;15.69;100.00;96152.91;1225739;75;2917658;-71
2023/10/31 03:34:30;;;;;;;1.50;0.75;;;;;;;15.82;100.00;96143.75;1222379;75;3054393;-68
2023/10/31 03:37:02;;;;;;;2.45;1.25;;;;;;;15.42;100.00;96164.19;1226837;75;2921140;-73
2023/10/31 03:39:38;;;;;;;2.50;1.15;;;;;;;15.19;100.00;96157.84;1223736;75;2922563;-68
2023/10/31 03:42:11;;;;;;;5.20;2.20;;;;;;;15.04;100.00;96150.22;1225550;75;2925091;-73
2023/10/31 03:44:43;;;;;;;5.90;2.30;;;;;;;14.99;100.00;96149.09;1222213;75;3013539;-71
2023/10/31 03:47:16;;;;;;;3.75;1.75;;;;;;;14.88;100.00;96143.88;1209905;75;4095764;-69
2023/10/31 03:49:48;;;;;;;2.70;1.50;;;;;;;15.12;100.00;96139.97;1224332;75;2921493;-69
2023/10/31 03:52:21;;;;;;;3.60;1.30;;;;;;;15.02;100.00;96119.72;1223512;75;2957792;-69
2023/10/31 03:54:57;;;;;;;1.95;1.00;;;;;;;15.29;100.00;96115.41;1225027;75;2920984;-72
2023/10/31 03:57:29;;;;;;;1.85;1.20;;;;;;;15.31;100.00;96115.63;1225014;75;2917229;-68
2023/10/31 04:00:04;;;;;;;1.85;1.10;;;;;;;15.16;100.00;96103.81;1225105;75;2932928;-72
2023/10/31 04:02:37;;;;;;;2.05;1.00;;;;;;;15.13;100.00;96108.38;1225407;75;2917490;-68
2023/10/31 04:05:10;;;;;;;1.40;0.70;;;;;;;15.19;100.00;96110.97;1224989;75;2920652;-71
2023/10/31 04:07:43;;;;;;;2.35;1.05;;;;;;;15.21;100.00;96113.94;1225326;75;2920778;-71
2023/10/31 04:10:18;;;;;;;4.40;1.55;;;;;;;14.65;100.00;96111.41;1225490;75;2924388;-68
2023/10/31 04:12:51;;;;;;;2.10;1.40;;;;;;;14.67;100.00;96117.13;1225287;75;2919968;-69
2023/10/31 04:15:24;;;;;;;4.90;2.40;;;;;;;14.73;100.00;96133.50;1225711;75;2893439;-66
2023/10/31 04:17:57;;;;;;;5.15;2.15;;;;;;;14.91;100.00;96129.00;1224589;75;2936550;-70
2023/10/31 04:20:29;;;;;;;4.05;2.05;;;;;;;15.09;100.00;96136.28;1224660;75;2922088;-71
2023/10/31 04:23:02;;;;;;;2.65;1.50;;;;;;;15.03;100.00;96135.72;1224725;75;2936176;-75
2023/10/31 04:25:37;;;;;;;2.65;1.85;;;;;;;14.95;100.00;96148.69;1225178;75;2919603;-68
2023/10/31 04:28:10;;;;;;;2.25;1.45;;;;;;;14.86;100.00;96158.22;1224732;75;2924446;-70
2023/10/31 04:30:42;;;;;;;2.05;1.40;;;;;;;15.03;100.00;96149.50;1224488;75;2929151;-70
2023/10/31 04:33:15;;;;;;;4.20;1.40;;;;;;;14.83;100.00;96161.28;1224971;75;2918886;-71
2023/10/31 04:35:48;;;;;;;2.60;1.40;;;;;;;15.01;100.00;96145.78;1224646;75;2920873;-72
2023/10/31 04:38:21;;;;;;;1.50;1.00;;;;;;;14.97;100.00;96148.91;1224486;75;2918671;-70
2023/10/31 04:40:56;;;;;;;1.85;0.90;;;;;;;15.10;100.00;96134.25;1224752;75;2920559;-70
2023/10/31 04:43:29;;;;;;;1.60;0.95;;;;;;;15.13;100.00;96127.69;1225120;75;2926561;-71
2023/10/31 04:46:02;;;;;;;1.95;1.00;;;;;;;15.22;100.00;96124.38;1225160;75;2930231;-68
2023/10/31 04:48:34;;;;;;;1.30;0.80;;;;;;;15.26;100.00;96127.53;1224928;75;2919358;-69
2023/10/31 04:51:08;;;;;;;2.40;1.30;;;;;;;14.96;100.00;96125.38;1213153;75;3823845;-69
2023/10/31 04:53:41;;;;;;;2.95;1.30;;;;;;;14.98;100.00;96133.81;1212783;75;3864382;-72
2023/10/31 04:56:20;;;;;;;2.00;1.60;;;;;;;14.73;100.00;96130.00;1223766;75;2940267;-70
2023/10/31 04:58:53;;;;;;;4.00;1.90;;;;;;;14.85;100.00;96125.69;1225814;75;2919283;-71
2023/10/31 05:01:25;;;;;;;2.85;1.80;;;;;;;14.77;100.00;96116.63;1224120;75;2950370;-72
2023/10/31 05:03:58;;;;;;;2.95;1.40;;;;;;;15.09;100.00;96141.06;1223833;75;2926943;-70
2023/10/31 05:06:31;;;;;;;4.90;1.75;;;;;;;14.84;100.00;96127.72;1225428;75;2918760;-68
2023/10/31 05:09:04;;;;;;;2.10;1.45;;;;;;;14.63;100.00;96141.53;1224296;75;2924149;-71
2023/10/31 05:11:40;;;;;;;3.65;1.95;;;;;;;14.54;100.00;96144.75;1223517;75;2924909;-71
2023/10/31 05:14:13;;;;;;;3.25;1.80;;;;;;;14.82;100.00;96141.28;1224382;75;2928941;-68
2023/10/31 05:16:46;;;;;;;1.80;1.10;;;;;;;15.02;100.00;96161.78;1222538;75;2930571;-66
2023/10/31 05:19:19;;;;;;;1.70;1.30;;;;;;;15.01;100.00;96159.56;1222678;75;2924336;-70
2023/10/31 05:21:52;;;;;;;1.75;1.30;;;;;;;15.00;100.00;96158.81;1223961;75;2925357;-68
2023/10/31 05:24:25;;;;;;;1.50;1.30;;;;;;;14.88;100.00;96158.38;1223282;75;2924405;-69
2023/10/31 05:27:00;;;;;;;2.35;1.35;;;;;;;14.84;100.00;96149.75;1224646;75;2922737;-68
2023/10/31 05:29:33;;;;;;;4.60;1.40;;;;;;;14.82;100.00;96154.31;1224881;75;2926213;-69
2023/10/31 05:32:06;;;;;;;2.75;2.05;;;;;;;14.78;100.00;96167.69;1224457;75;2932517;-71
2023/10/31 05:34:39;;;;;;;2.50;1.90;;;;;;;14.84;100.00;96165.50;1224050;75;2924549;-69
2023/10/31 05:37:12;;;;;;;4.40;2.95;;;;;;;14.77;100.00;96189.00;1222155;75;2958706;-68
2023/10/31 05:39:44;;;;;;;8.00;6.20;;;;;;;14.69;100.00;96194.44;1223875;75;2923609;-72
2023/10/31 05:42:20;;;;;;;5.25;4.75;;;;;;;14.85;100.00;96189.03;1224389;75;2926420;-70
2023/10/31 05:44:53;;;;;;;4.05;3.40;;;;;;;14.93;100.00;96197.34;1223867;75;2936564;-66
2023/10/31 05:47:25;;;;;;;3.35;2.65;;;;;;;14.79;100.00;96185.69;1223646;75;2933292;-68
2023/10/31 05:49:58;;;;;;;4.35;2.85;;;;;;;14.39;100.00;96205.91;1222064;75;2938256;-72
2023/10/31 05:52:33;;;;;;;5.55;4.00;;;;;;;14.37;100.00;96208.47;1223861;75;2924504;-71
2023/10/31 05:55:06;;;;;;;5.00;3.50;;;;;;;14.75;100.00;96219.09;1224390;75;2926586;-68
2023/10/31 05:57:41;;;;;;;2.70;2.20;;;;;;;14.85;100.00;96216.59;1221441;75;3107713;-69
2023/10/31 06:00:15;;;;;;;2.30;1.90;;;;;;;14.87;100.00;96212.03;1224278;75;2925346;-69
2023/10/31 06:02:48;;;;;;;1.70;1.45;;;;;;;14.84;100.00;96206.84;1224380;75;2922962;-69
2023/10/31 06:05:20;;;;;;;1.95;1.45;;;;;;;14.76;100.00;96200.53;1224085;75;2926484;-71
2023/10/31 06:07:53;;;;;;;4.00;1.35;;;;;;;14.60;100.00;96191.41;1224701;75;2928197;-69
2023/10/31 06:10:25;;;;;;;3.80;1.35;;;;;;;14.56;100.00;96166.25;1224217;75;2923872;-66
2023/10/31 06:13:01;;;;;;;3.35;1.65;;;;;;;14.55;100.00;96156.50;1222014;75;3037915;-71
2023/10/31 06:15:33;;;;;;;1.85;1.30;;;;;;;14.49;100.00;96160.09;1224239;75;2934256;-71
2023/10/31 06:18:06;;;;;;;2.80;1.40;;;;;;;14.61;100.00;96170.88;1223873;75;2920568;-69
2023/10/31 06:20:39;;;;;;;2.25;1.25;;;;;;;14.57;100.00;96162.94;1223158;75;2934689;-70
2023/10/31 06:23:12;;;;;;;2.35;1.20;;;;;;;14.68;100.00;96186.72;1224565;75;2916939;-70
2023/10/31 06:25:45;;;;;;;1.10;0.95;;;;;;;14.62;100.00;96186.88;1220762;75;3085577;-73
2023/10/31 06:28:20;;;;;;;1.10;1.00;;;;;;;14.65;100.00;96205.06;1223682;75;2926546;-70
2023/10/31 06:30:52;;;;;;;2.20;1.20;;;;;;;14.72;100.00;96213.91;1224433;75;2938461;-70
2023/10/31 06:33:25;;;;;;;2.10;1.10;;;;;;;14.61;100.00;96209.44;1223023;75;2943368;-69
2023/10/31 06:35:58;;;;;;;1.85;0.80;;;;;;;14.75;100.00;96202.56;1223549;67;2921612;-68
2023/10/31 06:38:31;;;;;;;1.30;1.10;;;;;;;14.74;100.00;96201.06;1223907;75;2921692;-73
2023/10/31 06:41:03;;;;;;;2.10;1.55;;;;;;;14.82;100.00;96209.41;1218742;75;3069648;-69
2023/10/31 06:43:39;;;;;;;2.65;1.50;;;;;;;14.83;100.00;96208.13;1224013;75;2924484;-68
2023/10/31 06:46:11;;;;;;;1.30;0.95;;;;;;;14.82;100.00;96220.44;1224156;75;2923305;-68
2023/10/31 06:48:44;;;;;;;1.75;1.25;;;;;;;14.72;100.00;96228.44;1223908;75;2921123;-68
2023/10/31 06:51:17;;;;;;;1.75;1.00;;;;;;;14.78;100.00;96218.00;1224057;75;2941513;-70
2023/10/31 06:53:50;;;;;;;1.30;0.90;;;;;;;14.64;100.00;96213.84;1223595;75;2923801;-70
2023/10/31 06:56:23;;;;;;;1.40;1.00;;;;;;;14.72;100.00;96224.94;1223856;75;2934857;-71
2023/10/31 06:58:58;;;;;;;1.85;0.90;;;;;;;14.80;100.00;96212.72;1223720;75;2923339;-69
2023/10/31 07:01:31;;;;;;;1.10;0.85;;;;;;;14.74;100.00;96206.59;1225100;75;2922544;-67
2023/10/31 07:04:04;;;;;;;3.05;1.20;;;;;;;14.63;100.00;96201.38;1224365;75;2931427;-69
2023/10/31 07:06:36;;;;;;;2.10;1.30;;;;;;;14.40;100.00;96198.38;1223775;75;2923610;-70
2023/10/31 07:09:09;;;;;;;2.00;1.30;;;;;;;14.57;100.00;96203.50;1224278;75;2926857;-70
2023/10/31 07:11:42;;;;;;;1.95;1.05;;;;;;;14.63;100.00;96202.09;1223864;75;2923622;-69
2023/10/31 07:14:19;;;;;;;2.55;1.10;;;;;;;14.66;100.00;96214.06;1223638;75;2925666;-67
2023/10/31 07:16:52;;;;;;;1.25;0.95;;;;;;;14.81;100.00;96210.69;1224225;75;2918745;-69
2023/10/31 07:19:24;;;;;;;2.00;1.30;;;;;;;14.82;100.00;96217.69;1215723;75;2921263;-72
2023/10/31 07:21:57;;;;;;;1.35;1.25;;;;;;;14.75;100.00;96205.31;1223818;75;2933499;-71
2023/10/31 07:24:30;;;;;;;1.60;1.35;;;;;;;14.69;100.00;96210.22;1224304;75;2923269;-70
2023/10/31 07:27:02;;;;;;;1.50;1.10;;;;;;;14.80;100.00;96215.47;1224544;75;2921586;-69
2023/10/31 07:29:38;;;;;;;1.55;0.95;;;;;;;14.87;100.00;96225.06;1224072;75;2912263;-71
2023/10/31 07:32:11;;;;;;;1.45;1.00;;;;;;;14.79;100.00;96230.53;1225521;75;2923727;-66
2023/10/31 07:34:45;;;;;;;1.80;1.10;;;;;;;14.75;100.00;96221.13;1224503;75;2923936;-69
2023/10/31 07:37:18;;;;;;;2.75;1.40;;;;;;;14.67;100.00;96229.31;1223095;75;2938847;-70
2023/10/31 07:39:51;;;;;;;2.05;1.10;;;;;;;14.85;100.00;96224.88;1224767;75;2935720;-71
2023/10/31 07:42:24;;;;;;;3.70;2.10;;;;;;;14.26;100.00;96209.47;1223319;75;2920817;-70
2023/10/31 07:44:59;;;;;;;4.90;2.35;;;;;;;14.08;100.00;96191.13;1223108;67;2922488;-66
2023/10/31 07:47:31;;;;;;;4.25;2.35;;;;;;;14.24;100.00;96184.50;1223964;75;2928554;-69
2023/10/31 07:50:04;;;;;;;3.80;2.50;;;;;;;14.22;100.00;96183.56;1223347;75;2921007;-70
2023/10/31 07:52:37;;;;;;;5.95;2.40;;;;;;;14.17;100.00;96178.94;1223196;75;2925127;-71
2023/10/31 07:55:11;;;;;;;3.65;2.50;;;;;;;14.29;100.00;96188.41;1223818;75;2925643;-71
2023/10/31 07:57:44;;;;;;;4.20;2.50;;;;;;;14.60;100.00;96175.66;1223540;75;2917743;-66
2023/10/31 08:00:20;;;;;;;2.20;1.40;;;;;;;14.71;100.00;96182.88;1223835;75;2946725;-69
2023/10/31 08:02:53;;;;;;;3.05;1.60;;;;;;;14.91;100.00;96184.13;1223726;75;2921564;-69
2023/10/31 08:05:26;;;;;;;2.45;1.20;;;;;;;14.94;100.00;96177.53;1223143;75;2924208;-66
2023/10/31 08:07:58;;;;;;;3.10;1.40;;;;;;;14.99;100.00;96184.91;1222430;75;2925400;-71
2023/10/31 08:10:34;;;;;;;2.35;1.60;;;;;;;15.06;100.00;96191.75;1224294;75;2922660;-68
2023/10/31 08:13:06;;;;;;;1.90;1.50;;;;;;;15.14;100.00;96187.03;1222816;75;2937370;-69
2023/10/31 08:15:42;;;;;;;2.00;1.50;;;;;;;15.03;100.00;96192.81;1222799;75;2939402;-70
2023/10/31 08:18:14;;;;;;;1.70;1.40;;;;;;;15.14;100.00;96184.28;1222674;75;2936202;-68
2023/10/31 08:20:49;;;;;;;2.95;1.40;;;;;;;15.25;100.00;96185.97;1223117;75;2930131;-68
2023/10/31 08:23:22;;;;;;;2.25;1.25;;;;;;;15.32;100.00;96180.53;1223338;75;2916795;-70
2023/10/31 08:25:54;;;;;;;1.35;0.90;;;;;;;15.48;100.00;96195.09;1222973;75;2958634;-71
2023/10/31 08:28:28;;;;;;;1.70;0.95;;;;;;;15.37;100.00;96187.16;1223115;75;2942953;-70
2023/10/31 08:31:03;;;;;;;1.40;1.10;;;;;;;15.39;100.00;96192.84;1225231;75;2919493;-70
2023/10/31 08:33:36;;;;;;;1.65;1.10;;;;;;;15.38;100.00;96185.13;1223066;75;2921265;-69
2023/10/31 08:36:11;;;;;;;1.40;0.80;;;;;;;15.37;100.00;96192.69;1224361;75;2925620;-72
2023/10/31 08:38:45;;;;;;;3.10;1.15;;;;;;;15.37;100.00;96209.22;1223980;75;2931595;-69
2023/10/31 08:41:20;;;;;;;1.80;1.20;;;;;;;15.49;100.00;96210.38;1218414;75;3082650;-68
2023/10/31 08:43:52;;;;;;;1.40;0.90;;;;;;;15.66;100.00;96211.94;1225962;75;2922192;-71
2023/10/31 08:46:27;;;;;;;1.50;0.90;;;;;;;15.49;100.00;96215.91;1224818;75;2919627;-69
2023/10/31 08:49:00;;;;;;;1.45;0.95;;;;;;;15.37;100.00;96216.72;1224859;75;2925983;-66
2023/10/31 08:51:33;;;;;;;1.05;0.85;;;;;;;15.45;100.00;96212.00;1225407;75;2928370;-67
2023/10/31 08:54:06;;;;;;;0.90;0.70;;;;;;;15.55;100.00;96212.97;1224888;75;2922748;-69
2023/10/31 08:56:39;;;;;;;1.20;0.90;;;;;;;15.51;100.00;96204.31;1222845;75;2923040;-70
2023/10/31 08:59:11;;;;;;;4.20;2.40;;;;;;;15.49;100.00;96204.88;1225094;75;2922489;-70
2023/10/31 09:01:47;;;;;;;3.60;2.00;;;;;;;15.53;100.00;96201.75;1225082;75;2920813;-68
2023/10/31 09:04:19;;;;;;;1.90;1.50;;;;;;;15.53;100.00;96193.47;1211269;75;3970539;-68
2023/10/31 09:06:52;;;;;;;1.40;1.20;;;;;;;15.23;100.00;96202.34;1224996;75;2921607;-66
2023/10/31 09:09:25;;;;;;;5.75;2.20;;;;;;;14.84;100.00;96209.59;1225203;75;2918361;-72
2023/10/31 09:11:57;;;;;;;4.00;2.45;;;;;;;15.05;100.00;96220.59;1223952;75;2926165;-69
2023/10/31 09:14:30;;;;;;;4.05;1.75;;;;;;;15.32;100.00;96218.34;1222885;75;2925953;-68
2023/10/31 09:17:06;;;;;;;5.45;2.50;;;;;;;14.81;100.00;96216.94;1225024;75;2915703;-69
2023/10/31 09:19:39;;;;;;;3.85;2.00;;;;;;;14.76;100.00;96219.81;1223412;75;2925969;-69
2023/10/31 09:22:11;;;;;;;4.15;2.50;;;;;;;14.77;100.00;96213.78;1225322;75;2917373;-65
2023/10/31 09:24:44;;;;;;;3.15;1.95;;;;;;;15.15;100.00;96229.09;1224798;75;2924146;-68
2023/10/31 09:27:16;;;;;;;2.55;1.60;;;;;;;15.22;100.00;96242.94;1222573;75;3030208;-69
2023/10/31 09:29:50;;;;;;;2.75;1.60;;;;;;;14.98;100.00;96273.63;1225388;75;2926856;-68
2023/10/31 09:32:26;;;;;;;8.35;3.10;;;;;;;14.62;100.00;96285.25;1224982;75;2918301;-69
2023/10/31 09:34:58;;;;;;;6.50;3.60;;;;;;;14.60;100.00;96302.34;1224975;75;2921334;-67
2023/10/31 09:37:31;;;;;;;9.15;3.85;;;;;;;14.19;100.00;96360.75;1224409;75;2928016;-67
2023/10/31 09:40:04;;;;;;;3.70;2.45;;;;;;;13.87;100.00;96374.66;1224133;75;2920596;-69
2023/10/31 09:42:37;;;;;;;3.35;1.70;;;;;;;13.49;100.00;96396.81;1224173;75;2936899;-67
2023/10/31 09:45:11;;;;;;;1.80;0.90;;;;;;;13.40;100.00;96387.72;1223239;75;2923552;-69
2023/10/31 09:47:47;;;;;;;1.55;0.75;;;;;;;13.38;100.00;96408.75;1223029;75;2923469;-73
2023/10/31 09:50:19;;;;;;;1.75;0.80;;;;;;;13.48;100.00;96406.34;1224273;75;2930784;-70
2023/10/31 09:52:53;;;;;;;0.80;0.70;;;;;;;13.42;100.00;96409.94;1224917;75;2916281;-70
2023/10/31 09:55:27;;;;;;;1.70;0.95;;;;;;;13.27;100.00;96422.66;1225043;83;2922303;-68
2023/10/31 09:58:00;;;;;;;0.95;0.75;;;;;;;13.39;100.00;96437.72;1223797;75;2929268;-70
2023/10/31 10:00:33;;;;;;;3.20;0.90;;;;;;;13.40;100.00;96447.47;1225217;75;2922639;-70
2023/10/31 10:03:10;;;;;;;2.80;1.05;;;;;;;13.42;100.00;96426.44;1208743;75;4089964;-67
2023/10/31 10:05:47;;;;;;;2.45;1.20;;;;;;;13.20;100.00;96407.50;1224902;75;2935771;-69
2023/10/31 10:08:19;;;;;;;2.25;1.00;;;;;;;13.37;100.00;96432.75;1222275;75;2929388;-70
2023/10/31 10:10:53;;;;;;;1.60;0.70;;;;;;;13.28;100.00;96415.94;1225008;75;2938301;-69
2023/10/31 10:13:26;;;;;;;3.65;0.90;;;;;;;13.18;100.00;96408.03;1222308;75;2945359;-70
2023/10/31 10:15:58;;;;;;;4.30;1.20;;;;;;;13.18;100.00;96412.78;1223939;75;2940661;-68
2023/10/31 10:18:39;;;;;;;1.95;1.00;;;;;;;13.08;100.00;96381.47;1224356;75;2926723;-71
2023/10/31 10:21:12;;;;;;;0.65;0.60;;;;;;;12.95;100.00;96365.69;1224346;75;2922247;-71
2023/10/31 10:23:45;;;;;;;2.25;1.50;;;;;;;13.20;100.00;96377.28;1221043;75;3098952;-69
2023/10/31 10:26:20;;;;;;;1.40;1.05;;;;;;;13.18;100.00;96357.81;1224536;75;2923077;-71
2023/10/31 10:28:53;;;;;;;2.45;0.90;;;;;;;13.02;100.00;96348.59;1220329;75;3028710;-66
2023/10/31 10:31:28;;;;;;;2.70;1.60;;;;;;;13.01;100.00;96377.31;1223520;75;2922604;-70
2023/10/31 10:34:04;;;;;;;1.65;0.90;;;;;;;12.88;100.00;96391.75;1224372;75;2926394;-69
2023/10/31 10:36:37;;;;;;;1.50;0.70;;;;;;;12.82;100.00;96388.38;1223971;75;2931536;-71
2023/10/31 10:39:11;;;;;;;1.95;0.80;;;;;;;12.95;100.00;96424.13;1223552;75;2927150;-67
2023/10/31 10:41:47;;;;;;;1.55;0.90;;;;;;;13.00;100.00;96439.78;1224513;75;2928055;-70
2023/10/31 10:44:20;;;;;;;1.45;0.70;;;;;;;12.81;100.00;96386.13;1224573;75;2923562;-70
2023/10/31 10:46:57;;;;;;;2.15;0.80;;;;;;;12.89;100.00;96330.09;1225063;75;2946256;-67
2023/10/31 10:49:36;;;;;;;1.55;0.50;;;;;;;12.66;100.00;96359.88;1223250;75;2917634;-68
2023/10/31 10:52:21;;;;;;;0.80;0.60;;;;;;;12.53;100.00;96344.09;1223812;75;2930745;-68
2023/10/31 10:55:03;;;;;;;1.10;0.60;;;;;;;12.49;100.00;96321.69;1224504;75;2922540;-68
2023/10/31 10:57:44;;;;;;;2.05;1.00;;;;;;;12.32;100.00;96291.00;1224094;75;2927602;-68
2023/10/31 11:00:19;;;;;;;0.90;0.65;;;;;;;12.41;100.00;96265.94;1223192;75;2923751;-70
2023/10/31 11:02:52;;;;;;;2.35;0.80;;;;;;;12.47;100.00;96233.63;1224247;75;2926057;-69
2023/10/31 11:05:29;;;;;;;0.70;0.60;;;;;;;12.72;100.00;96214.25;1224578;75;2921216;-68
2023/10/31 11:08:02;;;;;;;0.80;0.70;;;;;;;13.04;100.00;96224.47;1224859;75;2923972;-70
2023/10/31 11:10:35;;;;;;;1.20;0.80;;;;;;;13.03;100.00;96236.72;1224715;75;2923783;-70
2023/10/31 11:13:08;;;;;;;1.00;0.90;;;;;;;12.60;100.00;96270.63;1225147;75;2866162;-66
2023/10/31 11:15:42;;;;;;;1.30;0.90;;;;;;;12.71;100.00;96265.69;1211491;75;3940154;-67
2023/10/31 11:18:15;;;;;;;0.85;0.40;;;;;;;13.04;100.00;96273.91;1224698;75;2926050;-69
2023/10/31 11:20:51;;;;;;;2.20;0.50;;;;;;;13.17;100.00;96280.16;1219835;75;3096109;-72
2023/10/31 11:23:24;;;;;;;4.90;4.05;;;;;;;13.03;100.00;96305.38;1224547;75;2920254;-68
2023/10/31 11:25:56;;;;;;;7.00;6.25;;;;;;;13.24;100.00;96308.28;1224533;75;2921709;-69
2023/10/31 11:28:29;;;;;;;3.95;2.95;;;;;;;12.87;100.00;96323.59;1224526;75;2922788;-69
2023/10/31 11:31:02;;;;;;;0.80;0.80;;;;;;;12.83;100.00;96342.41;1225227;75;2914192;-69
2023/10/31 11:33:35;;;;;;;2.45;0.60;;;;;;;12.79;100.00;96350.94;1224496;75;2923551;-68
2023/10/31 11:36:15;;;;;;;0.95;0.55;;;;;;;12.65;100.00;96366.66;1223781;75;2922356;-73
2023/10/31 11:38:48;;;;;;;0.85;0.50;;;;;;;12.83;100.00;96386.34;1224094;75;2926239;-72